sensor_id;sensor_type;location;lat;lon;timestamp;P1;durP1;ratioP1;P2;durP2;ratioP2
53010;SDS011;42803;55.762;38.084;2023-05-07T00:00:08;4.72;;;2.33;;
53010;SDS011;42803;55.762;38.084;2023-05-07T00:02:38;3.33;;;2.08;;
53010;SDS011;42803;55.762;38.084;2023-05-07T00:05:08;4.10;;;2.17;;
53010;SDS011;42803;55.762;38.084;2023-05-07T00:07:37;9.82;;;2.95;;
53010;SDS011;42803;55.762;38.084;2023-05-07T00:10:07;5.65;;;2.70;;
53010;SDS011;42803;55.762;38.084;2023-05-07T00:12:40;4.10;;;2.10;;
53010;SDS011;42803;55.762;38.084;2023-05-07T00:15:10;3.25;;;2.28;;
53010;SDS011;42803;55.762;38.084;2023-05-07T00:17:39;11.32;;;2.42;;
53010;SDS011;42803;55.762;38.084;2023-05-07T00:20:09;7.47;;;2.50;;
53010;SDS011;42803;55.762;38.084;2023-05-07T00:22:39;4.70;;;2.03;;
53010;SDS011;42803;55.762;38.084;2023-05-07T00:25:09;4.57;;;2.72;;
53010;SDS011;42803;55.762;38.084;2023-05-07T00:27:38;4.57;;;2.00;;
53010;SDS011;42803;55.762;38.084;2023-05-07T00:30:08;3.97;;;2.17;;
53010;SDS011;42803;55.762;38.084;2023-05-07T00:32:38;3.75;;;2.50;;
53010;SDS011;42803;55.762;38.084;2023-05-07T00:35:07;3.97;;;2.30;;
53010;SDS011;42803;55.762;38.084;2023-05-07T00:37:37;4.88;;;2.05;;
53010;SDS011;42803;55.762;38.084;2023-05-07T00:40:07;5.22;;;2.53;;
53010;SDS011;42803;55.762;38.084;2023-05-07T00:42:38;7.00;;;2.70;;
53010;SDS011;42803;55.762;38.084;2023-05-07T00:45:07;5.70;;;2.33;;
53010;SDS011;42803;55.762;38.084;2023-05-07T00:47:38;4.72;;;2.40;;
53010;SDS011;42803;55.762;38.084;2023-05-07T00:50:08;6.32;;;2.60;;
53010;SDS011;42803;55.762;38.084;2023-05-07T00:52:40;4.93;;;2.17;;
53010;SDS011;42803;55.762;38.084;2023-05-07T00:55:10;4.03;;;2.20;;
53010;SDS011;42803;55.762;38.084;2023-05-07T00:57:42;4.43;;;2.83;;
53010;SDS011;42803;55.762;38.084;2023-05-07T01:00:12;4.57;;;2.40;;
53010;SDS011;42803;55.762;38.084;2023-05-07T01:02:42;6.13;;;2.75;;
53010;SDS011;42803;55.762;38.084;2023-05-07T01:05:12;4.35;;;2.40;;
53010;SDS011;42803;55.762;38.084;2023-05-07T01:07:43;5.85;;;2.83;;
53010;SDS011;42803;55.762;38.084;2023-05-07T01:10:13;6.40;;;2.50;;
53010;SDS011;42803;55.762;38.084;2023-05-07T01:12:44;5.40;;;2.67;;
53010;SDS011;42803;55.762;38.084;2023-05-07T01:15:15;4.85;;;1.98;;
53010;SDS011;42803;55.762;38.084;2023-05-07T01:17:46;2.63;;;1.98;;
53010;SDS011;42803;55.762;38.084;2023-05-07T01:20:22;3.67;;;1.95;;
53010;SDS011;42803;55.762;38.084;2023-05-07T01:22:55;4.78;;;2.65;;
53010;SDS011;42803;55.762;38.084;2023-05-07T01:25:25;3.80;;;2.78;;
53010;SDS011;42803;55.762;38.084;2023-05-07T01:27:58;4.50;;;2.30;;
53010;SDS011;42803;55.762;38.084;2023-05-07T01:30:32;5.18;;;2.15;;
53010;SDS011;42803;55.762;38.084;2023-05-07T01:33:06;5.50;;;2.72;;
53010;SDS011;42803;55.762;38.084;2023-05-07T01:35:38;6.85;;;2.85;;
53010;SDS011;42803;55.762;38.084;2023-05-07T01:38:11;4.38;;;2.42;;
53010;SDS011;42803;55.762;38.084;2023-05-07T01:40:41;3.63;;;2.00;;
53010;SDS011;42803;55.762;38.084;2023-05-07T01:43:11;6.25;;;2.40;;
53010;SDS011;42803;55.762;38.084;2023-05-07T01:45:41;3.58;;;2.38;;
53010;SDS011;42803;55.762;38.084;2023-05-07T01:48:12;5.88;;;2.42;;
53010;SDS011;42803;55.762;38.084;2023-05-07T01:50:43;4.45;;;2.45;;
53010;SDS011;42803;55.762;38.084;2023-05-07T01:53:14;4.35;;;2.20;;
53010;SDS011;42803;55.762;38.084;2023-05-07T01:55:43;4.15;;;2.33;;
53010;SDS011;42803;55.762;38.084;2023-05-07T01:58:12;3.17;;;2.05;;
53010;SDS011;42803;55.762;38.084;2023-05-07T02:00:41;4.90;;;2.20;;
53010;SDS011;42803;55.762;38.084;2023-05-07T02:03:10;5.53;;;2.25;;
53010;SDS011;42803;55.762;38.084;2023-05-07T02:05:51;3.60;;;2.00;;
53010;SDS011;42803;55.762;38.084;2023-05-07T02:08:29;3.00;;;1.52;;
53010;SDS011;42803;55.762;38.084;2023-05-07T02:10:59;3.38;;;2.22;;
53010;SDS011;42803;55.762;38.084;2023-05-07T02:13:31;3.38;;;2.03;;
53010;SDS011;42803;55.762;38.084;2023-05-07T02:16:01;4.53;;;2.28;;
53010;SDS011;42803;55.762;38.084;2023-05-07T02:18:31;5.07;;;2.15;;
53010;SDS011;42803;55.762;38.084;2023-05-07T02:21:01;4.72;;;2.38;;
53010;SDS011;42803;55.762;38.084;2023-05-07T02:23:31;2.70;;;2.00;;
53010;SDS011;42803;55.762;38.084;2023-05-07T02:26:01;5.00;;;2.28;;
53010;SDS011;42803;55.762;38.084;2023-05-07T02:28:32;3.35;;;1.98;;
53010;SDS011;42803;55.762;38.084;2023-05-07T02:31:04;2.72;;;1.98;;
53010;SDS011;42803;55.762;38.084;2023-05-07T02:33:34;2.40;;;1.63;;
53010;SDS011;42803;55.762;38.084;2023-05-07T02:36:07;4.05;;;2.00;;
53010;SDS011;42803;55.762;38.084;2023-05-07T02:38:42;4.07;;;2.05;;
53010;SDS011;42803;55.762;38.084;2023-05-07T02:41:11;1.75;;;1.52;;
53010;SDS011;42803;55.762;38.084;2023-05-07T02:43:40;6.38;;;2.20;;
53010;SDS011;42803;55.762;38.084;2023-05-07T02:46:10;2.88;;;1.88;;
53010;SDS011;42803;55.762;38.084;2023-05-07T02:48:43;3.28;;;2.08;;
53010;SDS011;42803;55.762;38.084;2023-05-07T02:51:13;4.20;;;2.38;;
53010;SDS011;42803;55.762;38.084;2023-05-07T02:53:45;3.20;;;2.22;;
53010;SDS011;42803;55.762;38.084;2023-05-07T02:56:14;3.40;;;2.15;;
53010;SDS011;42803;55.762;38.084;2023-05-07T02:58:43;3.00;;;1.75;;
53010;SDS011;42803;55.762;38.084;2023-05-07T03:01:13;1.77;;;1.60;;
53010;SDS011;42803;55.762;38.084;2023-05-07T03:03:55;4.10;;;1.88;;
53010;SDS011;42803;55.762;38.084;2023-05-07T03:06:24;2.83;;;1.65;;
53010;SDS011;42803;55.762;38.084;2023-05-07T03:08:55;2.80;;;1.80;;
53010;SDS011;42803;55.762;38.084;2023-05-07T03:11:24;3.35;;;1.73;;
53010;SDS011;42803;55.762;38.084;2023-05-07T03:13:53;3.03;;;1.70;;
53010;SDS011;42803;55.762;38.084;2023-05-07T03:16:22;3.10;;;1.95;;
53010;SDS011;42803;55.762;38.084;2023-05-07T03:18:51;2.67;;;1.65;;
53010;SDS011;42803;55.762;38.084;2023-05-07T03:21:21;2.35;;;1.60;;
53010;SDS011;42803;55.762;38.084;2023-05-07T03:23:50;2.33;;;1.73;;
53010;SDS011;42803;55.762;38.084;2023-05-07T03:26:20;3.33;;;1.60;;
53010;SDS011;42803;55.762;38.084;2023-05-07T03:28:49;4.70;;;1.85;;
53010;SDS011;42803;55.762;38.084;2023-05-07T03:31:18;3.72;;;2.00;;
53010;SDS011;42803;55.762;38.084;2023-05-07T03:33:51;3.05;;;1.77;;
53010;SDS011;42803;55.762;38.084;2023-05-07T03:36:21;4.97;;;1.70;;
53010;SDS011;42803;55.762;38.084;2023-05-07T03:38:52;2.67;;;1.48;;
53010;SDS011;42803;55.762;38.084;2023-05-07T03:41:25;4.38;;;1.70;;
53010;SDS011;42803;55.762;38.084;2023-05-07T03:43:55;4.47;;;1.75;;
53010;SDS011;42803;55.762;38.084;2023-05-07T03:46:24;2.15;;;1.80;;
53010;SDS011;42803;55.762;38.084;2023-05-07T03:48:54;3.67;;;1.90;;
53010;SDS011;42803;55.762;38.084;2023-05-07T03:51:23;2.03;;;1.30;;
53010;SDS011;42803;55.762;38.084;2023-05-07T03:53:53;1.75;;;1.00;;
53010;SDS011;42803;55.762;38.084;2023-05-07T03:56:26;1.77;;;1.55;;
53010;SDS011;42803;55.762;38.084;2023-05-07T03:58:57;1.33;;;1.05;;
53010;SDS011;42803;55.762;38.084;2023-05-07T04:01:26;1.88;;;1.42;;
53010;SDS011;42803;55.762;38.084;2023-05-07T04:03:56;4.15;;;2.10;;
53010;SDS011;42803;55.762;38.084;2023-05-07T04:06:26;2.42;;;1.30;;
53010;SDS011;42803;55.762;38.084;2023-05-07T04:08:56;2.22;;;1.20;;
53010;SDS011;42803;55.762;38.084;2023-05-07T04:11:25;1.67;;;1.48;;
53010;SDS011;42803;55.762;38.084;2023-05-07T04:13:55;2.95;;;1.50;;
53010;SDS011;42803;55.762;38.084;2023-05-07T04:16:24;2.78;;;1.63;;
53010;SDS011;42803;55.762;38.084;2023-05-07T04:18:53;1.40;;;1.23;;
53010;SDS011;42803;55.762;38.084;2023-05-07T04:21:23;3.00;;;1.50;;
53010;SDS011;42803;55.762;38.084;2023-05-07T04:23:55;1.60;;;1.40;;
53010;SDS011;42803;55.762;38.084;2023-05-07T04:26:24;2.22;;;1.42;;
53010;SDS011;42803;55.762;38.084;2023-05-07T04:28:54;3.63;;;1.40;;
53010;SDS011;42803;55.762;38.084;2023-05-07T04:31:26;1.83;;;1.50;;
53010;SDS011;42803;55.762;38.084;2023-05-07T04:33:56;2.00;;;1.40;;
53010;SDS011;42803;55.762;38.084;2023-05-07T04:36:25;1.80;;;1.45;;
53010;SDS011;42803;55.762;38.084;2023-05-07T04:39:02;2.20;;;1.40;;
53010;SDS011;42803;55.762;38.084;2023-05-07T04:41:31;2.05;;;1.02;;
53010;SDS011;42803;55.762;38.084;2023-05-07T04:44:02;2.90;;;1.40;;
53010;SDS011;42803;55.762;38.084;2023-05-07T04:46:34;4.00;;;1.40;;
53010;SDS011;42803;55.762;38.084;2023-05-07T04:49:03;1.50;;;0.80;;
53010;SDS011;42803;55.762;38.084;2023-05-07T04:51:34;1.52;;;1.10;;
53010;SDS011;42803;55.762;38.084;2023-05-07T04:54:03;1.42;;;1.20;;
53010;SDS011;42803;55.762;38.084;2023-05-07T04:56:32;1.83;;;1.10;;
53010;SDS011;42803;55.762;38.084;2023-05-07T04:59:04;2.33;;;1.13;;
53010;SDS011;42803;55.762;38.084;2023-05-07T05:01:33;1.98;;;1.30;;
53010;SDS011;42803;55.762;38.084;2023-05-07T05:04:02;2.83;;;1.35;;
53010;SDS011;42803;55.762;38.084;2023-05-07T05:06:31;1.48;;;0.55;;
53010;SDS011;42803;55.762;38.084;2023-05-07T05:09:03;1.02;;;0.85;;
53010;SDS011;42803;55.762;38.084;2023-05-07T05:11:33;2.80;;;1.10;;
53010;SDS011;42803;55.762;38.084;2023-05-07T05:14:04;2.05;;;0.70;;
53010;SDS011;42803;55.762;38.084;2023-05-07T05:16:33;0.98;;;0.90;;
53010;SDS011;42803;55.762;38.084;2023-05-07T05:19:02;1.13;;;0.82;;
53010;SDS011;42803;55.762;38.084;2023-05-07T05:21:34;1.17;;;0.98;;
53010;SDS011;42803;55.762;38.084;2023-05-07T05:24:07;1.23;;;0.82;;
53010;SDS011;42803;55.762;38.084;2023-05-07T05:26:36;0.98;;;0.80;;
53010;SDS011;42803;55.762;38.084;2023-05-07T05:29:07;2.35;;;0.95;;
53010;SDS011;42803;55.762;38.084;2023-05-07T05:31:40;0.95;;;0.82;;
53010;SDS011;42803;55.762;38.084;2023-05-07T05:34:10;2.35;;;1.05;;
53010;SDS011;42803;55.762;38.084;2023-05-07T05:36:41;2.83;;;1.58;;
53010;SDS011;42803;55.762;38.084;2023-05-07T05:39:10;0.70;;;0.70;;
53010;SDS011;42803;55.762;38.084;2023-05-07T05:41:40;1.30;;;1.00;;
53010;SDS011;42803;55.762;38.084;2023-05-07T05:44:10;0.82;;;0.73;;
53010;SDS011;42803;55.762;38.084;2023-05-07T05:46:41;1.67;;;0.90;;
53010;SDS011;42803;55.762;38.084;2023-05-07T05:49:11;1.38;;;1.00;;
53010;SDS011;42803;55.762;38.084;2023-05-07T05:51:40;2.13;;;1.15;;
53010;SDS011;42803;55.762;38.084;2023-05-07T05:54:10;2.60;;;1.20;;
53010;SDS011;42803;55.762;38.084;2023-05-07T05:56:39;3.08;;;1.20;;
53010;SDS011;42803;55.762;38.084;2023-05-07T06:01:58;3.70;;;0.80;;
53010;SDS011;42803;55.762;38.084;2023-05-07T06:04:27;1.90;;;1.15;;
53010;SDS011;42803;55.762;38.084;2023-05-07T06:06:57;1.58;;;1.10;;
53010;SDS011;42803;55.762;38.084;2023-05-07T06:09:44;4.95;;;1.40;;
53010;SDS011;42803;55.762;38.084;2023-05-07T06:12:13;1.35;;;1.00;;
53010;SDS011;42803;55.762;38.084;2023-05-07T06:14:44;1.77;;;1.02;;
53010;SDS011;42803;55.762;38.084;2023-05-07T06:17:13;1.10;;;0.70;;
53010;SDS011;42803;55.762;38.084;2023-05-07T06:19:42;1.25;;;1.00;;
53010;SDS011;42803;55.762;38.084;2023-05-07T06:22:12;1.40;;;1.10;;
53010;SDS011;42803;55.762;38.084;2023-05-07T06:24:41;1.92;;;1.00;;
53010;SDS011;42803;55.762;38.084;2023-05-07T06:27:10;2.55;;;0.85;;
53010;SDS011;42803;55.762;38.084;2023-05-07T06:29:40;4.72;;;0.80;;
53010;SDS011;42803;55.762;38.084;2023-05-07T06:32:15;2.38;;;1.10;;
53010;SDS011;42803;55.762;38.084;2023-05-07T06:34:46;2.50;;;0.88;;
53010;SDS011;42803;55.762;38.084;2023-05-07T06:37:15;0.77;;;0.77;;
53010;SDS011;42803;55.762;38.084;2023-05-07T06:39:54;1.40;;;1.23;;
53010;SDS011;42803;55.762;38.084;2023-05-07T06:42:30;2.58;;;1.02;;
53010;SDS011;42803;55.762;38.084;2023-05-07T06:45:16;2.08;;;0.88;;
53010;SDS011;42803;55.762;38.084;2023-05-07T06:47:46;3.17;;;0.85;;
53010;SDS011;42803;55.762;38.084;2023-05-07T06:50:16;1.27;;;0.95;;
53010;SDS011;42803;55.762;38.084;2023-05-07T06:52:45;1.50;;;1.35;;
53010;SDS011;42803;55.762;38.084;2023-05-07T06:55:14;2.45;;;1.00;;
53010;SDS011;42803;55.762;38.084;2023-05-07T06:57:43;0.88;;;0.73;;
53010;SDS011;42803;55.762;38.084;2023-05-07T07:00:14;2.95;;;0.98;;
53010;SDS011;42803;55.762;38.084;2023-05-07T07:02:51;3.42;;;0.90;;
53010;SDS011;42803;55.762;38.084;2023-05-07T07:05:23;1.52;;;1.02;;
53010;SDS011;42803;55.762;38.084;2023-05-07T07:07:52;0.95;;;0.77;;
53010;SDS011;42803;55.762;38.084;2023-05-07T07:10:22;1.20;;;1.10;;
53010;SDS011;42803;55.762;38.084;2023-05-07T07:12:52;0.93;;;0.80;;
53010;SDS011;42803;55.762;38.084;2023-05-07T07:15:22;1.10;;;0.82;;
53010;SDS011;42803;55.762;38.084;2023-05-07T07:17:57;2.30;;;1.30;;
53010;SDS011;42803;55.762;38.084;2023-05-07T07:20:26;1.45;;;1.13;;
53010;SDS011;42803;55.762;38.084;2023-05-07T07:22:56;1.20;;;1.10;;
53010;SDS011;42803;55.762;38.084;2023-05-07T07:25:26;1.65;;;0.82;;
53010;SDS011;42803;55.762;38.084;2023-05-07T07:27:55;1.60;;;0.88;;
53010;SDS011;42803;55.762;38.084;2023-05-07T07:30:27;1.50;;;0.90;;
53010;SDS011;42803;55.762;38.084;2023-05-07T07:32:57;0.93;;;0.73;;
53010;SDS011;42803;55.762;38.084;2023-05-07T07:35:33;3.92;;;1.20;;
53010;SDS011;42803;55.762;38.084;2023-05-07T07:38:04;3.13;;;0.80;;
53010;SDS011;42803;55.762;38.084;2023-05-07T07:40:34;1.05;;;0.80;;
53010;SDS011;42803;55.762;38.084;2023-05-07T07:43:05;1.02;;;0.93;;
53010;SDS011;42803;55.762;38.084;2023-05-07T07:45:35;0.52;;;0.52;;
53010;SDS011;42803;55.762;38.084;2023-05-07T07:48:06;0.80;;;0.80;;
53010;SDS011;42803;55.762;38.084;2023-05-07T07:50:37;1.00;;;0.82;;
53010;SDS011;42803;55.762;38.084;2023-05-07T07:53:14;1.00;;;0.90;;
53010;SDS011;42803;55.762;38.084;2023-05-07T07:55:43;2.25;;;1.10;;
53010;SDS011;42803;55.762;38.084;2023-05-07T07:58:16;1.48;;;1.00;;
53010;SDS011;42803;55.762;38.084;2023-05-07T08:00:45;1.42;;;0.80;;
53010;SDS011;42803;55.762;38.084;2023-05-07T08:03:16;2.58;;;1.05;;
53010;SDS011;42803;55.762;38.084;2023-05-07T08:05:50;1.45;;;0.88;;
53010;SDS011;42803;55.762;38.084;2023-05-07T08:08:21;1.90;;;1.08;;
53010;SDS011;42803;55.762;38.084;2023-05-07T08:10:51;1.33;;;0.90;;
53010;SDS011;42803;55.762;38.084;2023-05-07T08:13:27;0.70;;;0.70;;
53010;SDS011;42803;55.762;38.084;2023-05-07T08:15:57;3.17;;;0.88;;
53010;SDS011;42803;55.762;38.084;2023-05-07T08:18:28;1.83;;;0.68;;
53010;SDS011;42803;55.762;38.084;2023-05-07T08:21:00;0.60;;;0.60;;
53010;SDS011;42803;55.762;38.084;2023-05-07T08:23:31;1.52;;;1.30;;
53010;SDS011;42803;55.762;38.084;2023-05-07T08:26:03;3.28;;;1.00;;
53010;SDS011;42803;55.762;38.084;2023-05-07T08:28:32;1.52;;;1.13;;
53010;SDS011;42803;55.762;38.084;2023-05-07T08:31:02;2.13;;;0.77;;
53010;SDS011;42803;55.762;38.084;2023-05-07T08:33:36;0.60;;;0.60;;
53010;SDS011;42803;55.762;38.084;2023-05-07T08:36:06;1.92;;;0.90;;
53010;SDS011;42803;55.762;38.084;2023-05-07T08:38:35;1.02;;;0.80;;
53010;SDS011;42803;55.762;38.084;2023-05-07T08:41:05;2.38;;;1.10;;
53010;SDS011;42803;55.762;38.084;2023-05-07T08:43:35;0.80;;;0.77;;
53010;SDS011;42803;55.762;38.084;2023-05-07T08:46:06;0.98;;;0.80;;
53010;SDS011;42803;55.762;38.084;2023-05-07T08:48:43;0.93;;;0.85;;
53010;SDS011;42803;55.762;38.084;2023-05-07T08:51:15;1.48;;;0.80;;
53010;SDS011;42803;55.762;38.084;2023-05-07T08:53:46;1.45;;;1.00;;
53010;SDS011;42803;55.762;38.084;2023-05-07T08:56:23;2.10;;;0.98;;
53010;SDS011;42803;55.762;38.084;2023-05-07T08:58:54;2.63;;;1.05;;
53010;SDS011;42803;55.762;38.084;2023-05-07T09:01:27;0.80;;;0.63;;
53010;SDS011;42803;55.762;38.084;2023-05-07T09:03:58;1.17;;;1.08;;
53010;SDS011;42803;55.762;38.084;2023-05-07T09:06:29;1.77;;;1.27;;
53010;SDS011;42803;55.762;38.084;2023-05-07T09:08:59;2.35;;;1.10;;
53010;SDS011;42803;55.762;38.084;2023-05-07T09:11:30;1.20;;;0.90;;
53010;SDS011;42803;55.762;38.084;2023-05-07T09:14:01;1.33;;;0.80;;
53010;SDS011;42803;55.762;38.084;2023-05-07T09:16:38;3.03;;;0.93;;
53010;SDS011;42803;55.762;38.084;2023-05-07T09:19:10;1.15;;;0.80;;
53010;SDS011;42803;55.762;38.084;2023-05-07T09:21:44;1.73;;;1.00;;
53010;SDS011;42803;55.762;38.084;2023-05-07T09:24:15;1.95;;;0.82;;
53010;SDS011;42803;55.762;38.084;2023-05-07T09:26:44;0.82;;;0.70;;
53010;SDS011;42803;55.762;38.084;2023-05-07T09:29:15;2.10;;;1.00;;
53010;SDS011;42803;55.762;38.084;2023-05-07T09:31:46;2.22;;;1.23;;
53010;SDS011;42803;55.762;38.084;2023-05-07T09:34:18;3.08;;;1.52;;
53010;SDS011;42803;55.762;38.084;2023-05-07T09:36:48;2.47;;;1.15;;
53010;SDS011;42803;55.762;38.084;2023-05-07T09:39:17;1.60;;;0.90;;
53010;SDS011;42803;55.762;38.084;2023-05-07T09:41:46;0.80;;;0.70;;
53010;SDS011;42803;55.762;38.084;2023-05-07T09:44:24;1.73;;;0.88;;
53010;SDS011;42803;55.762;38.084;2023-05-07T09:46:54;1.83;;;1.10;;
53010;SDS011;42803;55.762;38.084;2023-05-07T09:49:34;1.13;;;0.70;;
53010;SDS011;42803;55.762;38.084;2023-05-07T09:52:08;1.45;;;0.80;;
53010;SDS011;42803;55.762;38.084;2023-05-07T09:54:45;0.50;;;0.50;;
53010;SDS011;42803;55.762;38.084;2023-05-07T09:57:19;1.98;;;0.80;;
53010;SDS011;42803;55.762;38.084;2023-05-07T09:59:53;0.73;;;0.65;;
53010;SDS011;42803;55.762;38.084;2023-05-07T10:02:26;1.38;;;0.85;;
53010;SDS011;42803;55.762;38.084;2023-05-07T10:05:00;1.50;;;0.70;;
53010;SDS011;42803;55.762;38.084;2023-05-07T10:07:33;0.73;;;0.73;;
53010;SDS011;42803;55.762;38.084;2023-05-07T10:10:07;0.77;;;0.63;;
53010;SDS011;42803;55.762;38.084;2023-05-07T10:12:41;1.80;;;1.00;;
53010;SDS011;42803;55.762;38.084;2023-05-07T10:17:49;2.05;;;0.90;;
53010;SDS011;42803;55.762;38.084;2023-05-07T10:20:21;1.55;;;0.80;;
53010;SDS011;42803;55.762;38.084;2023-05-07T10:22:53;1.40;;;0.70;;
53010;SDS011;42803;55.762;38.084;2023-05-07T10:25:33;2.40;;;0.90;;
53010;SDS011;42803;55.762;38.084;2023-05-07T10:28:09;3.00;;;1.10;;
53010;SDS011;42803;55.762;38.084;2023-05-07T10:30:46;2.00;;;0.70;;
53010;SDS011;42803;55.762;38.084;2023-05-07T10:33:35;1.05;;;0.80;;
53010;SDS011;42803;55.762;38.084;2023-05-07T10:36:10;3.60;;;0.98;;
53010;SDS011;42803;55.762;38.084;2023-05-07T10:38:39;1.42;;;0.90;;
53010;SDS011;42803;55.762;38.084;2023-05-07T10:41:09;1.75;;;0.90;;
53010;SDS011;42803;55.762;38.084;2023-05-07T10:43:42;1.58;;;0.93;;
53010;SDS011;42803;55.762;38.084;2023-05-07T10:46:24;2.25;;;1.17;;
53010;SDS011;42803;55.762;38.084;2023-05-07T10:49:12;2.22;;;1.13;;
53010;SDS011;42803;55.762;38.084;2023-05-07T10:55:18;1.10;;;0.93;;
53010;SDS011;42803;55.762;38.084;2023-05-07T10:58:24;1.20;;;1.00;;
53010;SDS011;42803;55.762;38.084;2023-05-07T11:04:26;1.40;;;0.88;;
53010;SDS011;42803;55.762;38.084;2023-05-07T11:07:23;0.88;;;0.80;;
53010;SDS011;42803;55.762;38.084;2023-05-07T11:10:00;3.08;;;1.10;;
53010;SDS011;42803;55.762;38.084;2023-05-07T11:12:53;1.10;;;0.80;;
53010;SDS011;42803;55.762;38.084;2023-05-07T11:15:42;2.00;;;0.90;;
53010;SDS011;42803;55.762;38.084;2023-05-07T11:21:33;1.33;;;0.90;;
53010;SDS011;42803;55.762;38.084;2023-05-07T11:24:21;0.60;;;0.60;;
53010;SDS011;42803;55.762;38.084;2023-05-07T11:26:57;4.40;;;1.33;;
53010;SDS011;42803;55.762;38.084;2023-05-07T11:29:28;1.02;;;0.93;;
53010;SDS011;42803;55.762;38.084;2023-05-07T11:32:05;2.55;;;1.20;;
53010;SDS011;42803;55.762;38.084;2023-05-07T11:34:41;1.58;;;1.20;;
53010;SDS011;42803;55.762;38.084;2023-05-07T11:37:16;1.27;;;0.85;;
53010;SDS011;42803;55.762;38.084;2023-05-07T11:40:06;2.25;;;1.10;;
53010;SDS011;42803;55.762;38.084;2023-05-07T11:42:38;3.50;;;0.90;;
53010;SDS011;42803;55.762;38.084;2023-05-07T11:45:10;1.75;;;1.45;;
53010;SDS011;42803;55.762;38.084;2023-05-07T11:47:41;1.30;;;1.00;;
53010;SDS011;42803;55.762;38.084;2023-05-07T11:50:11;1.08;;;0.70;;
53010;SDS011;42803;55.762;38.084;2023-05-07T11:52:40;3.22;;;1.92;;
53010;SDS011;42803;55.762;38.084;2023-05-07T11:55:20;2.10;;;0.90;;
53010;SDS011;42803;55.762;38.084;2023-05-07T11:57:51;2.28;;;1.00;;
53010;SDS011;42803;55.762;38.084;2023-05-07T12:00:20;1.58;;;0.90;;
53010;SDS011;42803;55.762;38.084;2023-05-07T12:02:50;2.45;;;1.00;;
53010;SDS011;42803;55.762;38.084;2023-05-07T12:05:19;2.60;;;0.90;;
53010;SDS011;42803;55.762;38.084;2023-05-07T12:07:48;11.95;;;1.90;;
53010;SDS011;42803;55.762;38.084;2023-05-07T12:10:25;1.42;;;1.00;;
53010;SDS011;42803;55.762;38.084;2023-05-07T12:12:54;1.10;;;0.77;;
53010;SDS011;42803;55.762;38.084;2023-05-07T12:15:23;0.50;;;0.50;;
53010;SDS011;42803;55.762;38.084;2023-05-07T12:17:52;1.00;;;0.82;;
53010;SDS011;42803;55.762;38.084;2023-05-07T12:20:22;1.55;;;1.10;;
53010;SDS011;42803;55.762;38.084;2023-05-07T12:22:51;1.98;;;1.15;;
53010;SDS011;42803;55.762;38.084;2023-05-07T12:25:22;2.33;;;1.30;;
53010;SDS011;42803;55.762;38.084;2023-05-07T12:27:53;2.33;;;1.00;;
53010;SDS011;42803;55.762;38.084;2023-05-07T12:30:22;1.60;;;1.20;;
53010;SDS011;42803;55.762;38.084;2023-05-07T12:32:52;3.17;;;1.45;;
53010;SDS011;42803;55.762;38.084;2023-05-07T12:35:27;1.30;;;1.00;;
53010;SDS011;42803;55.762;38.084;2023-05-07T12:40:35;1.08;;;0.90;;
53010;SDS011;42803;55.762;38.084;2023-05-07T12:43:06;1.13;;;1.00;;
53010;SDS011;42803;55.762;38.084;2023-05-07T12:45:36;1.13;;;0.95;;
53010;SDS011;42803;55.762;38.084;2023-05-07T12:48:07;1.42;;;0.90;;
53010;SDS011;42803;55.762;38.084;2023-05-07T12:50:38;1.38;;;1.08;;
53010;SDS011;42803;55.762;38.084;2023-05-07T12:53:07;1.75;;;1.13;;
53010;SDS011;42803;55.762;38.084;2023-05-07T12:55:42;1.65;;;1.10;;
53010;SDS011;42803;55.762;38.084;2023-05-07T12:58:17;2.65;;;1.10;;
53010;SDS011;42803;55.762;38.084;2023-05-07T13:00:48;2.60;;;1.00;;
53010;SDS011;42803;55.762;38.084;2023-05-07T13:03:21;0.73;;;0.73;;
53010;SDS011;42803;55.762;38.084;2023-05-07T13:05:52;3.53;;;1.00;;
53010;SDS011;42803;55.762;38.084;2023-05-07T13:08:29;1.30;;;0.93;;
53010;SDS011;42803;55.762;38.084;2023-05-07T13:11:00;1.33;;;1.02;;
53010;SDS011;42803;55.762;38.084;2023-05-07T13:13:33;3.30;;;0.90;;
53010;SDS011;42803;55.762;38.084;2023-05-07T13:16:03;1.25;;;1.13;;
53010;SDS011;42803;55.762;38.084;2023-05-07T13:18:34;1.10;;;0.95;;
53010;SDS011;42803;55.762;38.084;2023-05-07T13:21:05;2.35;;;1.30;;
53010;SDS011;42803;55.762;38.084;2023-05-07T13:23:35;3.25;;;1.63;;
53010;SDS011;42803;55.762;38.084;2023-05-07T13:26:06;1.73;;;1.20;;
53010;SDS011;42803;55.762;38.084;2023-05-07T13:28:53;2.30;;;1.40;;
53010;SDS011;42803;55.762;38.084;2023-05-07T13:31:23;2.97;;;1.38;;
53010;SDS011;42803;55.762;38.084;2023-05-07T13:33:53;0.82;;;0.80;;
53010;SDS011;42803;55.762;38.084;2023-05-07T13:36:23;2.13;;;1.05;;
53010;SDS011;42803;55.762;38.084;2023-05-07T13:38:52;2.03;;;1.38;;
53010;SDS011;42803;55.762;38.084;2023-05-07T13:41:21;3.20;;;1.13;;
53010;SDS011;42803;55.762;38.084;2023-05-07T13:43:50;2.58;;;1.40;;
53010;SDS011;42803;55.762;38.084;2023-05-07T13:46:21;3.67;;;1.70;;
53010;SDS011;42803;55.762;38.084;2023-05-07T13:48:50;2.67;;;1.52;;
53010;SDS011;42803;55.762;38.084;2023-05-07T13:51:19;2.25;;;1.30;;
53010;SDS011;42803;55.762;38.084;2023-05-07T13:53:50;2.88;;;1.33;;
53010;SDS011;42803;55.762;38.084;2023-05-07T13:56:19;2.03;;;1.10;;
53010;SDS011;42803;55.762;38.084;2023-05-07T13:58:49;1.77;;;1.02;;
53010;SDS011;42803;55.762;38.084;2023-05-07T14:01:28;4.38;;;1.38;;
53010;SDS011;42803;55.762;38.084;2023-05-07T14:03:58;1.23;;;0.90;;
53010;SDS011;42803;55.762;38.084;2023-05-07T14:06:27;2.58;;;1.05;;
53010;SDS011;42803;55.762;38.084;2023-05-07T14:08:57;2.67;;;1.35;;
53010;SDS011;42803;55.762;38.084;2023-05-07T14:11:28;3.55;;;1.30;;
53010;SDS011;42803;55.762;38.084;2023-05-07T14:14:00;2.20;;;1.35;;
53010;SDS011;42803;55.762;38.084;2023-05-07T14:16:31;1.02;;;0.93;;
53010;SDS011;42803;55.762;38.084;2023-05-07T14:19:00;2.08;;;1.20;;
53010;SDS011;42803;55.762;38.084;2023-05-07T14:21:30;1.92;;;1.30;;
53010;SDS011;42803;55.762;38.084;2023-05-07T14:24:00;2.40;;;1.30;;
53010;SDS011;42803;55.762;38.084;2023-05-07T14:26:29;2.08;;;1.27;;
53010;SDS011;42803;55.762;38.084;2023-05-07T14:28:58;3.60;;;1.50;;
53010;SDS011;42803;55.762;38.084;2023-05-07T14:31:28;2.83;;;1.27;;
53010;SDS011;42803;55.762;38.084;2023-05-07T14:33:59;3.35;;;1.15;;
53010;SDS011;42803;55.762;38.084;2023-05-07T14:36:28;1.98;;;1.50;;
53010;SDS011;42803;55.762;38.084;2023-05-07T14:38:59;4.88;;;1.70;;
53010;SDS011;42803;55.762;38.084;2023-05-07T14:41:30;2.75;;;1.10;;
53010;SDS011;42803;55.762;38.084;2023-05-07T14:44:00;1.67;;;1.20;;
53010;SDS011;42803;55.762;38.084;2023-05-07T14:46:31;2.67;;;1.40;;
53010;SDS011;42803;55.762;38.084;2023-05-07T14:49:03;1.63;;;1.10;;
53010;SDS011;42803;55.762;38.084;2023-05-07T14:51:33;1.63;;;1.10;;
53010;SDS011;42803;55.762;38.084;2023-05-07T14:54:02;2.28;;;1.02;;
53010;SDS011;42803;55.762;38.084;2023-05-07T14:56:32;4.38;;;1.98;;
53010;SDS011;42803;55.762;38.084;2023-05-07T14:59:01;2.00;;;1.70;;
53010;SDS011;42803;55.762;38.084;2023-05-07T15:01:35;2.47;;;1.15;;
53010;SDS011;42803;55.762;38.084;2023-05-07T15:04:07;2.13;;;1.17;;
53010;SDS011;42803;55.762;38.084;2023-05-07T15:06:36;4.30;;;1.52;;
53010;SDS011;42803;55.762;38.084;2023-05-07T15:09:05;1.73;;;1.63;;
53010;SDS011;42803;55.762;38.084;2023-05-07T15:11:35;1.98;;;1.17;;
53010;SDS011;42803;55.762;38.084;2023-05-07T15:14:06;2.25;;;1.15;;
53010;SDS011;42803;55.762;38.084;2023-05-07T15:16:35;1.10;;;1.00;;